createdAt,value
2022-10-13T00:00:56.551Z,29.90
2022-10-13T00:01:56.525Z,27.10
2022-10-13T00:02:56.497Z,24.30
2022-10-13T00:03:56.488Z,23.80
2022-10-13T00:04:56.468Z,26.50
2022-10-13T00:05:56.461Z,33.30
2022-10-13T00:06:56.465Z,31.90
2022-10-13T00:07:56.440Z,29.50
2022-10-13T00:08:56.433Z,24.10
2022-10-13T00:09:56.419Z,32.60
2022-10-13T00:10:56.408Z,29.50
2022-10-13T00:11:56.420Z,24.40
2022-10-13T00:12:56.380Z,26.30
2022-10-13T00:13:56.381Z,35.40
2022-10-13T00:14:56.382Z,29.50
2022-10-13T00:15:56.360Z,25.70
2022-10-13T00:16:56.362Z,26.20
2022-10-13T00:17:56.347Z,37.40
2022-10-13T00:18:56.332Z,33.30
2022-10-13T00:19:56.320Z,34.10
2022-10-13T00:20:56.304Z,34.60
2022-10-13T00:21:56.314Z,24.80
2022-10-13T00:22:56.284Z,30.30
2022-10-13T00:23:56.272Z,31.40
2022-10-13T00:24:56.264Z,30.70
2022-10-13T00:25:56.253Z,24.30
2022-10-13T00:26:56.263Z,26.60
2022-10-13T00:27:56.233Z,22.00
2022-10-13T00:28:56.268Z,31.30
2022-10-13T00:29:56.214Z,33.40
2022-10-13T00:30:56.196Z,29.20
2022-10-13T00:31:56.205Z,29.10
2022-10-13T00:32:56.176Z,29.20
2022-10-13T00:33:56.168Z,27.90
2022-10-13T00:34:56.147Z,28.30
2022-10-13T00:35:56.165Z,32.40
2022-10-13T00:36:56.146Z,29.70
2022-10-13T00:37:56.128Z,33.90
2022-10-13T00:38:56.108Z,28.70
2022-10-13T00:39:56.108Z,33.10
2022-10-13T00:40:56.106Z,28.90
2022-10-13T00:41:56.098Z,29.90
2022-10-13T00:42:56.075Z,27.60
2022-10-13T00:43:56.070Z,27.60
2022-10-13T00:44:56.053Z,29.40
2022-10-13T00:45:56.048Z,25.30
2022-10-13T00:46:56.072Z,29.30
2022-10-13T00:47:56.020Z,28.60
2022-10-13T00:48:56.009Z,27.70
2022-10-13T00:49:56.001Z,32.00
2022-10-13T00:50:55.982Z,30.90
2022-10-13T00:51:56.000Z,29.40
2022-10-13T00:52:55.963Z,27.10
2022-10-13T00:53:55.972Z,29.00
2022-10-13T00:54:55.953Z,32.70
2022-10-13T00:55:55.933Z,32.00
2022-10-13T00:56:55.941Z,32.20
2022-10-13T00:57:55.918Z,28.60
2022-10-13T00:58:55.904Z,26.00
2022-10-13T00:59:55.894Z,27.50
2022-10-13T01:00:55.962Z,27.50
2022-10-13T01:01:55.893Z,30.10
2022-10-13T01:02:55.864Z,24.80
2022-10-13T01:03:55.855Z,25.40
2022-10-13T01:04:55.836Z,28.40
2022-10-13T01:05:55.833Z,28.10
2022-10-13T01:06:55.837Z,27.20
2022-10-13T01:07:55.813Z,26.40
2022-10-13T01:08:55.795Z,30.70
2022-10-13T01:09:55.795Z,29.20
2022-10-13T01:10:55.796Z,23.10
2022-10-13T01:11:55.786Z,27.90
2022-10-13T01:12:55.759Z,29.20
2022-10-13T01:13:55.751Z,26.80
2022-10-13T01:14:55.736Z,28.70
2022-10-13T01:15:55.728Z,30.80
2022-10-13T01:16:55.730Z,29.30
2022-10-13T01:17:55.730Z,28.40
2022-10-13T01:18:55.701Z,25.80
2022-10-13T01:19:55.681Z,27.90
2022-10-13T01:20:55.670Z,23.30
2022-10-13T01:21:55.703Z,24.90
2022-10-13T01:22:55.649Z,29.90
2022-10-13T01:23:55.649Z,28.10
2022-10-13T01:24:55.632Z,32.20
2022-10-13T01:25:55.622Z,26.40
2022-10-13T01:26:55.633Z,27.20
2022-10-13T01:27:55.613Z,29.90
2022-10-13T01:28:55.592Z,26.40
2022-10-13T01:29:55.584Z,27.40
2022-10-13T01:30:55.563Z,27.90
2022-10-13T01:31:55.580Z,29.10
2022-10-13T01:32:55.544Z,29.50
2022-10-13T01:33:55.545Z,27.50
2022-10-13T01:34:55.529Z,23.90
2022-10-13T01:35:55.533Z,25.70
2022-10-13T01:36:55.526Z,31.90
2022-10-13T01:37:55.497Z,27.80
2022-10-13T01:38:55.483Z,25.20
2022-10-13T01:39:55.476Z,28.80
2022-10-13T01:40:55.463Z,28.50
2022-10-13T01:41:55.474Z,30.40
2022-10-13T01:42:55.436Z,39.30
2022-10-13T01:43:55.437Z,39.90
2022-10-13T01:44:55.417Z,36.60
2022-10-13T01:45:55.416Z,35.20
2022-10-13T01:46:55.419Z,28.40
2022-10-13T01:47:55.395Z,29.00
2022-10-13T01:48:55.391Z,32.20
2022-10-13T01:49:55.368Z,33.70
2022-10-13T01:50:55.372Z,29.10
2022-10-13T01:51:55.374Z,40.60
2022-10-13T01:52:55.330Z,35.40
2022-10-13T01:53:55.341Z,29.00
2022-10-13T01:54:55.328Z,34.90
2022-10-13T01:55:55.300Z,29.20
2022-10-13T01:56:55.322Z,28.80
2022-10-13T01:57:55.280Z,25.80
2022-10-13T01:58:55.280Z,33.30
2022-10-13T01:59:55.261Z,30.30
2022-10-13T02:00:55.297Z,35.00
2022-10-13T02:01:55.261Z,33.40
2022-10-13T02:02:55.240Z,32.40
2022-10-13T02:03:55.220Z,32.00
2022-10-13T02:04:55.213Z,34.90
2022-10-13T02:05:55.194Z,34.60
2022-10-13T02:06:55.258Z,33.90
2022-10-13T02:07:55.174Z,27.20
2022-10-13T02:08:55.173Z,38.90
2022-10-13T02:09:55.164Z,34.80
2022-10-13T02:10:55.151Z,66.80
2022-10-13T02:11:55.152Z,39.90
2022-10-13T02:12:55.125Z,40.60
2022-10-13T02:13:55.115Z,40.50
2022-10-13T02:14:55.106Z,35.50
2022-10-13T02:15:55.096Z,35.60
2022-10-13T02:16:55.105Z,32.60
2022-10-13T02:17:55.074Z,34.40
2022-10-13T02:18:55.065Z,38.60
2022-10-13T02:19:55.048Z,42.80
2022-10-13T02:20:55.045Z,48.60
2022-10-13T02:21:55.046Z,45.90
2022-10-13T02:22:55.019Z,46.00
2022-10-13T02:23:55.006Z,43.80
2022-10-13T02:24:55.008Z,46.10
2022-10-13T02:25:54.989Z,50.40
2022-10-13T02:26:54.999Z,51.00
2022-10-13T02:27:54.961Z,51.90
2022-10-13T02:28:54.960Z,51.30
2022-10-13T02:29:54.939Z,52.50
2022-10-13T02:30:54.942Z,52.20
2022-10-13T02:31:54.978Z,56.30
2022-10-13T02:32:54.910Z,48.60
2022-10-13T02:33:54.901Z,60.00
2022-10-13T02:34:54.892Z,58.10
2022-10-13T02:35:54.880Z,51.50
2022-10-13T02:36:54.892Z,48.00
2022-10-13T02:37:54.872Z,50.70
2022-10-13T02:38:54.862Z,45.40
2022-10-13T02:39:54.862Z,40.80
2022-10-13T02:40:54.860Z,43.30
2022-10-13T02:41:54.843Z,43.40
2022-10-13T02:42:54.812Z,40.10
2022-10-13T02:43:54.801Z,45.00
2022-10-13T02:44:54.794Z,36.10
2022-10-13T02:45:54.774Z,49.80
2022-10-13T02:46:54.785Z,50.10
2022-10-13T02:47:54.751Z,45.00
2022-10-13T02:48:54.764Z,39.20
2022-10-13T02:49:54.733Z,49.50
2022-10-13T02:50:54.726Z,48.20
2022-10-13T02:51:54.725Z,45.80
2022-10-13T02:52:54.703Z,40.70
2022-10-13T02:53:54.711Z,44.20
2022-10-13T02:54:54.683Z,47.80
2022-10-13T02:55:54.667Z,42.70
2022-10-13T02:56:54.691Z,48.20
2022-10-13T02:57:54.655Z,45.40
2022-10-13T02:58:54.659Z,46.60
2022-10-13T02:59:54.630Z,54.70
2022-10-13T03:00:54.714Z,61.60
2022-10-13T03:01:54.618Z,50.90
2022-10-13T03:02:54.597Z,52.00
2022-10-13T03:03:54.581Z,56.90
2022-10-13T03:04:54.584Z,55.60
2022-10-13T03:05:54.563Z,53.50
2022-10-13T03:06:54.587Z,53.20
2022-10-13T03:07:54.539Z,53.50
2022-10-13T03:08:54.531Z,66.60
2022-10-13T03:09:54.520Z,54.30
2022-10-13T03:10:54.512Z,53.20
2022-10-13T03:11:54.511Z,55.70
2022-10-13T03:12:54.492Z,62.60
2022-10-13T03:13:54.472Z,61.20
2022-10-13T03:14:54.463Z,61.30
2022-10-13T03:15:54.733Z,52.70
2022-10-13T03:16:54.475Z,50.60
2022-10-13T03:17:54.443Z,45.90
2022-10-13T03:18:54.432Z,51.30
2022-10-13T03:19:54.414Z,46.20
2022-10-13T03:20:54.405Z,49.70
2022-10-13T03:21:54.415Z,44.90
2022-10-13T03:22:54.385Z,46.80
2022-10-13T03:23:54.364Z,48.00
2022-10-13T03:24:54.363Z,44.40
2022-10-13T03:25:54.354Z,54.10
2022-10-13T03:26:54.357Z,60.50
2022-10-13T03:27:54.327Z,48.30
2022-10-13T03:28:54.318Z,48.10
2022-10-13T03:29:54.306Z,51.00
2022-10-13T03:30:54.298Z,54.90
2022-10-13T03:31:54.297Z,47.60
2022-10-13T03:32:54.277Z,48.40
2022-10-13T03:33:54.260Z,44.40
2022-10-13T03:34:54.276Z,45.50
2022-10-13T03:35:54.239Z,46.70
2022-10-13T03:36:54.250Z,51.30
2022-10-13T03:37:54.221Z,50.70
2022-10-13T03:38:54.211Z,50.50
2022-10-13T03:39:54.199Z,57.40
2022-10-13T03:40:54.199Z,52.80
2022-10-13T03:41:54.200Z,50.60
2022-10-13T03:42:54.170Z,55.20
2022-10-13T03:43:54.164Z,62.80
2022-10-13T03:44:56.518Z,62.00
2022-10-13T03:45:54.133Z,66.80
2022-10-13T03:46:54.143Z,64.10
2022-10-13T03:47:54.123Z,57.40
2022-10-13T03:48:54.115Z,53.60
2022-10-13T03:49:54.098Z,55.40
2022-10-13T03:50:54.087Z,52.90
2022-10-13T03:51:54.085Z,55.10
2022-10-13T03:52:54.064Z,57.30
2022-10-13T03:53:54.054Z,47.50
2022-10-13T03:54:54.043Z,47.90
2022-10-13T03:55:54.026Z,52.30
2022-10-13T03:56:54.037Z,52.60
2022-10-13T03:57:54.005Z,48.80
2022-10-13T03:58:54.003Z,54.40
2022-10-13T03:59:53.987Z,63.90
2022-10-13T04:00:53.983Z,59.40
2022-10-13T04:01:54.014Z,67.20
2022-10-13T04:02:53.965Z,61.20
2022-10-13T04:03:53.947Z,59.00
2022-10-13T04:04:53.937Z,66.00
2022-10-13T04:05:53.925Z,67.70
2022-10-13T04:06:53.948Z,65.00
2022-10-13T04:07:53.910Z,62.30
2022-10-13T04:08:53.898Z,67.40
2022-10-13T04:09:53.879Z,64.50
2022-10-13T04:10:53.869Z,67.00
2022-10-13T04:11:53.878Z,59.80
2022-10-13T04:12:53.860Z,58.50
2022-10-13T04:13:53.838Z,61.00
2022-10-13T04:14:53.831Z,61.80
2022-10-13T04:15:53.811Z,65.70
2022-10-13T04:16:53.831Z,61.30
2022-10-13T04:17:53.791Z,65.60
2022-10-13T04:18:53.791Z,62.40
2022-10-13T04:19:53.782Z,75.20
2022-10-13T04:20:53.782Z,75.30
2022-10-13T04:21:53.771Z,82.80
2022-10-13T04:22:53.743Z,92.20
2022-10-13T04:23:53.733Z,86.00
2022-10-13T04:24:53.764Z,87.10
2022-10-13T04:25:53.714Z,93.00
2022-10-13T04:26:53.722Z,93.00
2022-10-13T04:27:53.684Z,97.40
2022-10-13T04:28:53.734Z,91.50
2022-10-13T04:29:53.675Z,103.20
2022-10-13T04:30:53.669Z,102.50
2022-10-13T04:31:53.666Z,103.60
2022-10-13T04:32:53.644Z,104.70
2022-10-13T04:33:53.625Z,94.20
2022-10-13T04:34:53.625Z,94.70
2022-10-13T04:35:53.615Z,97.60
2022-10-13T04:36:53.616Z,100.00
2022-10-13T04:37:53.587Z,98.90
2022-10-13T04:38:53.595Z,95.40
2022-10-13T04:39:53.558Z,101.40
2022-10-13T04:40:53.559Z,98.40
2022-10-13T04:41:53.570Z,95.70
2022-10-13T04:42:53.538Z,98.50
2022-10-13T04:43:53.529Z,87.80
2022-10-13T04:44:53.516Z,85.30
2022-10-13T04:45:53.500Z,95.10
2022-10-13T04:46:53.509Z,86.70
2022-10-13T04:47:53.489Z,82.80
2022-10-13T04:48:53.471Z,97.60
2022-10-13T04:49:53.459Z,82.90
2022-10-13T04:50:53.451Z,82.10
2022-10-13T04:51:53.480Z,80.30
2022-10-13T04:52:53.432Z,94.20
2022-10-13T04:53:53.422Z,100.70
2022-10-13T04:54:53.411Z,91.60
2022-10-13T04:55:53.403Z,75.00
2022-10-13T04:56:53.410Z,118.90
2022-10-13T04:57:53.409Z,148.50
2022-10-13T04:58:53.377Z,128.60
2022-10-13T04:59:53.356Z,105.30
2022-10-13T05:00:53.372Z,102.10
2022-10-13T05:01:53.366Z,182.30
2022-10-13T05:02:53.331Z,102.70
2022-10-13T05:03:53.313Z,87.90
2022-10-13T05:04:53.319Z,91.60
2022-10-13T05:05:53.285Z,102.10
2022-10-13T05:07:16.629Z,121.30
2022-10-13T05:07:54.276Z,80.70
2022-10-13T05:08:53.261Z,86.60
2022-10-13T05:09:53.247Z,82.40
2022-10-13T05:10:53.245Z,88.00
2022-10-13T05:11:53.239Z,86.20
2022-10-13T05:12:53.218Z,111.00
2022-10-13T05:13:53.205Z,96.70
2022-10-13T05:14:53.198Z,88.00
2022-10-13T05:15:53.192Z,103.10
2022-10-13T05:16:53.201Z,108.70
2022-10-13T05:17:53.160Z,86.10
2022-10-13T05:18:53.160Z,118.70
2022-10-13T05:19:53.149Z,118.60
2022-10-13T05:20:53.130Z,155.50
2022-10-13T05:21:53.091Z,86.20
2022-10-13T05:22:53.060Z,125.60
2022-10-13T05:23:53.101Z,118.90
2022-10-13T05:24:53.097Z,99.30
2022-10-13T05:25:53.080Z,137.40
2022-10-13T05:26:53.101Z,112.90
2022-10-13T05:27:53.028Z,173.30
2022-10-13T05:28:53.050Z,180.80
2022-10-13T05:29:53.032Z,198.40
2022-10-13T05:30:52.990Z,150.40
2022-10-13T05:31:52.973Z,151.60
2022-10-13T05:32:53.951Z,181.50
2022-10-13T05:33:52.962Z,209.90
2022-10-13T05:34:52.946Z,201.00
2022-10-13T05:35:53.075Z,145.30
2022-10-13T05:36:52.934Z,147.80
2022-10-13T05:37:52.904Z,203.70
2022-10-13T05:38:52.895Z,108.70
2022-10-13T05:39:52.875Z,180.10
2022-10-13T05:40:52.875Z,92.70
2022-10-13T05:41:52.876Z,122.40
2022-10-13T05:42:52.858Z,224.40
2022-10-13T05:43:52.839Z,208.50
2022-10-13T05:44:52.829Z,224.10
2022-10-13T05:45:52.815Z,211.50
2022-10-13T05:46:52.825Z,185.90
2022-10-13T05:47:52.798Z,196.00
2022-10-13T05:48:52.788Z,184.70
2022-10-13T05:49:52.769Z,273.30
2022-10-13T05:50:52.768Z,168.30
2022-10-13T05:51:52.770Z,261.60
2022-10-13T05:52:52.740Z,257.40
2022-10-13T05:53:57.530Z,263.30
2022-10-13T05:54:53.720Z,226.40
2022-10-13T05:55:52.711Z,237.70
2022-10-13T05:56:52.720Z,218.80
2022-10-13T05:57:52.691Z,338.60
2022-10-13T05:58:52.682Z,220.10
2022-10-13T05:59:52.672Z,343.10
2022-10-13T06:00:52.673Z,239.30
2022-10-13T06:01:52.683Z,337.70
2022-10-13T06:02:52.660Z,241.10
2022-10-13T06:03:52.622Z,237.60
2022-10-13T06:04:52.613Z,208.80
2022-10-13T06:05:53.103Z,255.90
2022-10-13T06:06:52.593Z,265.80
2022-10-13T06:07:52.594Z,287.90
2022-10-13T06:08:52.574Z,298.90
2022-10-13T06:09:52.557Z,238.20
2022-10-13T06:10:52.557Z,248.30
2022-10-13T06:11:52.545Z,239.10
2022-10-13T06:12:52.545Z,226.90
2022-10-13T06:13:52.527Z,192.30
2022-10-13T06:14:52.523Z,200.80
2022-10-13T06:15:52.506Z,185.40
2022-10-13T06:16:52.485Z,135.10
2022-10-13T06:17:52.504Z,129.10
2022-10-13T06:18:52.465Z,157.00
2022-10-13T06:19:52.472Z,235.00
2022-10-13T06:20:52.447Z,217.70
2022-10-13T06:21:52.443Z,132.60
2022-10-13T06:22:52.458Z,207.00
2022-10-13T06:23:52.420Z,257.80
2022-10-13T06:24:52.409Z,291.30
2022-10-13T06:25:52.400Z,286.40
2022-10-13T06:26:52.386Z,257.50
2022-10-13T06:27:52.392Z,320.90
2022-10-13T06:28:56.930Z,210.40
2022-10-13T06:29:53.350Z,317.50
2022-10-13T06:30:52.340Z,293.30
2022-10-13T06:31:52.338Z,328.60
2022-10-13T06:32:52.341Z,288.60
2022-10-13T06:33:52.311Z,344.00
2022-10-13T06:34:52.298Z,349.20
2022-10-13T06:35:52.294Z,266.90
2022-10-13T06:36:52.282Z,244.90
2022-10-13T06:37:52.292Z,289.10
2022-10-13T06:38:52.254Z,327.70
2022-10-13T06:39:52.250Z,365.30
2022-10-13T06:40:52.234Z,330.20
2022-10-13T06:41:52.262Z,409.30
2022-10-13T06:42:52.233Z,342.70
2022-10-13T06:43:52.206Z,208.00
2022-10-13T06:44:52.194Z,329.90
2022-10-13T06:45:52.185Z,251.50
2022-10-13T06:46:52.166Z,250.30
2022-10-13T06:47:52.189Z,282.70
2022-10-13T06:48:52.147Z,268.70
2022-10-13T06:49:52.143Z,323.90
2022-10-13T06:50:52.125Z,291.50
2022-10-13T06:51:52.117Z,375.50
2022-10-13T06:52:52.136Z,313.20
2022-10-13T06:53:52.105Z,188.80
2022-10-13T06:54:52.087Z,357.30
2022-10-13T06:55:52.664Z,303.90
2022-10-13T06:56:52.065Z,318.50
2022-10-13T06:57:52.077Z,317.90
2022-10-13T06:58:52.042Z,211.80
2022-10-13T06:59:52.041Z,257.50
2022-10-13T07:00:52.070Z,247.80
2022-10-13T07:01:52.021Z,175.30
2022-10-13T07:02:52.020Z,277.60
2022-10-13T07:03:51.999Z,196.10
2022-10-13T07:04:51.980Z,205.30
2022-10-13T07:05:51.974Z,218.90
2022-10-13T07:06:51.959Z,208.30
2022-10-13T07:07:51.971Z,147.80
2022-10-13T07:08:51.952Z,144.20
2022-10-13T07:09:51.938Z,192.70
2022-10-13T07:10:51.914Z,155.70
2022-10-13T07:11:51.910Z,154.40
2022-10-13T07:12:51.911Z,147.80
2022-10-13T07:13:51.950Z,147.60
2022-10-13T07:14:51.883Z,136.60
2022-10-13T07:15:51.863Z,127.60
2022-10-13T07:16:51.854Z,122.30
2022-10-13T07:17:51.866Z,124.60
2022-10-13T07:18:51.834Z,138.20
2022-10-13T07:19:55.678Z,116.30
2022-10-13T07:20:52.817Z,117.80
2022-10-13T07:21:51.806Z,122.90
2022-10-13T07:22:51.806Z,127.80
2022-10-13T07:23:51.795Z,124.10
2022-10-13T07:24:51.766Z,116.10
2022-10-13T07:25:51.764Z,115.80
2022-10-13T07:26:51.756Z,115.70
2022-10-13T07:27:51.766Z,121.50
2022-10-13T07:28:51.781Z,111.90
2022-10-13T07:29:51.718Z,119.10
2022-10-13T07:30:51.709Z,113.00
2022-10-13T07:31:51.699Z,113.30
2022-10-13T07:32:51.708Z,115.30
2022-10-13T07:33:51.686Z,137.30
2022-10-13T07:34:51.667Z,121.90
2022-10-13T07:35:51.660Z,117.70
2022-10-13T07:36:51.640Z,120.40
2022-10-13T07:37:51.674Z,114.50
2022-10-13T07:38:51.620Z,119.30
2022-10-13T07:39:51.622Z,113.10
2022-10-13T07:40:51.600Z,116.10
2022-10-13T07:41:51.591Z,120.50
2022-10-13T07:42:51.611Z,116.90
2022-10-13T07:43:51.572Z,123.50
2022-10-13T07:44:51.561Z,123.90
2022-10-13T07:45:51.552Z,130.40
2022-10-13T07:46:51.533Z,127.00
2022-10-13T07:47:51.561Z,125.80
2022-10-13T07:48:51.522Z,128.70
2022-10-13T07:49:51.516Z,119.70
2022-10-13T07:50:51.499Z,119.80
2022-10-13T07:51:51.485Z,110.90
2022-10-13T07:52:51.494Z,116.90
2022-10-13T07:53:51.493Z,117.90
2022-10-13T07:54:51.462Z,119.00
2022-10-13T07:55:51.446Z,107.20
2022-10-13T07:56:51.433Z,118.80
2022-10-13T07:57:51.437Z,111.00
2022-10-13T07:58:51.407Z,104.90
2022-10-13T07:59:51.405Z,112.10
2022-10-13T08:00:51.397Z,107.70
2022-10-13T08:01:51.435Z,106.30
2022-10-13T08:02:51.400Z,103.70
2022-10-13T08:03:51.376Z,109.80
2022-10-13T08:04:51.349Z,107.40
2022-10-13T08:05:51.348Z,104.10
2022-10-13T08:06:51.339Z,100.40
2022-10-13T08:07:54.693Z,99.40
2022-10-13T08:08:52.305Z,99.60
2022-10-13T08:09:51.328Z,101.30
2022-10-13T08:10:51.341Z,102.30
2022-10-13T08:11:51.299Z,95.80
2022-10-13T08:12:51.262Z,87.10
2022-10-13T08:13:51.260Z,89.60
2022-10-13T08:14:51.249Z,87.80
2022-10-13T08:15:51.265Z,86.70
2022-10-13T08:16:53.037Z,88.70
2022-10-13T08:17:51.214Z,85.50
2022-10-13T08:18:51.211Z,92.00
2022-10-13T08:19:51.192Z,83.90
2022-10-13T08:20:51.182Z,82.30
2022-10-13T08:21:59.839Z,80.50
2022-10-13T08:22:52.154Z,84.90
2022-10-13T08:23:51.154Z,83.20
2022-10-13T08:24:51.141Z,79.50
2022-10-13T08:25:51.135Z,81.30
2022-10-13T08:26:51.131Z,79.70
2022-10-13T08:27:53.084Z,80.30
2022-10-13T08:29:09.655Z,81.00
2022-10-13T08:29:52.096Z,79.80
2022-10-13T08:30:51.163Z,73.60
2022-10-13T08:31:51.232Z,72.00
2022-10-13T08:32:51.054Z,76.50
2022-10-13T08:33:51.047Z,74.70
2022-10-13T08:34:51.028Z,76.00
2022-10-13T08:35:51.019Z,74.70
2022-10-13T08:36:51.047Z,75.50
2022-10-13T08:37:51.014Z,75.50
2022-10-13T08:38:50.988Z,76.90
2022-10-13T08:39:50.998Z,71.30
2022-10-13T08:40:50.979Z,73.10
2022-10-13T08:41:50.988Z,77.20
2022-10-13T08:42:50.948Z,76.20
2022-10-13T08:44:33.707Z,76.80
2022-10-13T08:45:51.930Z,77.80
2022-10-13T08:46:50.920Z,74.50
2022-10-13T08:47:50.905Z,78.90
2022-10-13T08:48:50.882Z,80.30
2022-10-13T08:49:50.881Z,83.80
2022-10-13T08:50:50.864Z,87.20
2022-10-13T08:51:50.872Z,81.90
2022-10-13T08:52:50.855Z,90.90
2022-10-13T08:53:50.833Z,78.10
2022-10-13T08:54:50.820Z,81.80
2022-10-13T08:55:50.814Z,79.80
2022-10-13T08:56:50.836Z,68.80
2022-10-13T08:57:50.814Z,70.40
2022-10-13T08:58:50.778Z,68.20
2022-10-13T08:59:50.766Z,62.70
2022-10-13T09:00:50.754Z,62.10
2022-10-13T09:01:50.789Z,63.50
2022-10-13T09:02:50.746Z,66.60
2022-10-13T09:03:50.725Z,63.20
2022-10-13T09:04:50.726Z,62.20
2022-10-13T09:05:50.707Z,67.50
2022-10-13T09:06:50.695Z,76.80
2022-10-13T09:07:50.746Z,71.00
2022-10-13T09:08:50.688Z,72.70
2022-10-13T09:09:50.665Z,72.70
2022-10-13T09:10:50.651Z,72.00
2022-10-13T09:11:50.646Z,71.20
2022-10-13T09:12:50.628Z,73.70
2022-10-13T09:13:50.650Z,66.30
2022-10-13T09:14:50.648Z,66.30
2022-10-13T09:15:50.601Z,69.80
2022-10-13T09:16:50.580Z,69.00
2022-10-13T09:17:50.580Z,73.00
2022-10-13T09:18:50.571Z,82.00
2022-10-13T09:19:50.663Z,77.60
2022-10-13T09:20:50.545Z,71.90
2022-10-13T09:21:50.543Z,72.40
2022-10-13T09:22:50.540Z,70.70
2022-10-13T09:23:50.523Z,73.00
2022-10-13T09:24:50.520Z,70.60
2022-10-13T09:25:50.497Z,71.70
2022-10-13T09:26:50.484Z,71.50
2022-10-13T09:27:50.477Z,67.70
2022-10-13T09:28:50.519Z,76.10
2022-10-13T09:29:50.481Z,77.70
2022-10-13T09:30:50.444Z,75.20
2022-10-13T09:31:50.435Z,76.30
2022-10-13T09:32:50.415Z,81.70
2022-10-13T09:33:50.416Z,74.00
2022-10-13T09:34:50.415Z,76.30
2022-10-13T09:35:50.398Z,65.80
2022-10-13T09:36:50.380Z,73.90
2022-10-13T09:37:50.377Z,67.50
2022-10-13T09:38:50.357Z,75.00
2022-10-13T09:39:50.379Z,68.40
2022-10-13T09:40:50.338Z,62.10
2022-10-13T09:41:50.360Z,63.90
2022-10-13T09:42:50.316Z,65.90
2022-10-13T09:43:50.309Z,61.90
2022-10-13T09:44:50.319Z,67.20
2022-10-13T09:45:50.289Z,61.30
2022-10-13T09:46:50.278Z,63.50
2022-10-13T09:47:50.270Z,62.50
2022-10-13T09:48:50.249Z,63.30
2022-10-13T09:49:50.261Z,63.70
2022-10-13T09:50:50.230Z,59.90
2022-10-13T09:51:50.221Z,61.30
2022-10-13T09:52:50.210Z,61.80
2022-10-13T09:53:50.209Z,60.90
2022-10-13T09:54:50.342Z,65.10
2022-10-13T09:55:50.183Z,61.70
2022-10-13T09:56:50.169Z,59.70
2022-10-13T09:57:50.161Z,57.50
2022-10-13T09:58:50.146Z,66.30
2022-10-13T09:59:50.200Z,65.10
2022-10-13T10:00:50.132Z,62.50
2022-10-13T10:01:50.123Z,65.60
2022-10-13T10:02:50.104Z,67.30
2022-10-13T10:03:50.162Z,60.40
2022-10-13T10:04:50.085Z,72.80
2022-10-13T10:05:50.076Z,63.90
2022-10-13T10:06:50.055Z,62.80
2022-10-13T10:07:50.064Z,64.20
2022-10-13T10:09:02.274Z,63.80
2022-10-13T10:09:51.027Z,60.10
2022-10-13T10:10:50.028Z,66.50
2022-10-13T10:11:50.009Z,65.20
2022-10-13T10:12:49.997Z,64.50
2022-10-13T10:13:50.009Z,64.70
2022-10-13T10:14:49.983Z,63.90
2022-10-13T10:15:49.980Z,59.20
2022-10-13T10:16:49.958Z,63.70
2022-10-13T10:17:49.960Z,57.10
2022-10-13T10:18:52.797Z,57.20
2022-10-13T10:19:50.930Z,55.00
2022-10-13T10:20:49.911Z,56.50
2022-10-13T10:21:49.901Z,58.30
2022-10-13T10:22:49.891Z,59.70
2022-10-13T10:23:49.902Z,62.60
2022-10-13T10:24:49.862Z,57.90
2022-10-13T10:25:49.862Z,65.80
2022-10-13T10:26:49.862Z,60.70
2022-10-13T10:27:49.841Z,62.00
2022-10-13T10:28:49.966Z,63.20
2022-10-13T10:29:49.812Z,62.40
2022-10-13T10:30:49.816Z,52.50
2022-10-13T10:31:49.792Z,58.10
2022-10-13T10:32:49.794Z,57.60
2022-10-13T10:33:49.786Z,56.70
2022-10-13T10:34:49.765Z,58.70
2022-10-13T10:35:49.756Z,59.10
2022-10-13T10:36:49.745Z,58.70
2022-10-13T10:37:49.726Z,66.20
2022-10-13T10:38:49.737Z,67.00
2022-10-13T10:39:49.710Z,61.50
2022-10-13T10:40:49.697Z,63.60
2022-10-13T10:41:49.680Z,59.40
2022-10-13T10:42:52.104Z,57.40
2022-10-13T10:43:49.688Z,61.50
2022-10-13T10:44:49.663Z,61.70
2022-10-13T10:45:49.640Z,54.70
2022-10-13T10:46:49.639Z,56.70
2022-10-13T10:47:49.619Z,55.10
2022-10-13T10:48:49.617Z,58.80
2022-10-13T10:49:49.612Z,59.30
2022-10-13T10:50:49.591Z,58.70
2022-10-13T10:51:49.581Z,53.20
2022-10-13T10:52:49.571Z,55.10
2022-10-13T10:53:49.551Z,51.00
2022-10-13T10:54:49.694Z,63.80
2022-10-13T10:55:49.532Z,53.30
2022-10-13T10:56:49.524Z,51.00
2022-10-13T10:57:49.510Z,50.80
2022-10-13T10:58:49.519Z,56.90
2022-10-13T10:59:56.234Z,51.40
2022-10-13T11:00:49.484Z,55.90
2022-10-13T11:01:49.497Z,61.70
2022-10-13T11:02:49.463Z,52.10
2022-10-13T11:03:49.444Z,55.30
2022-10-13T11:04:49.454Z,53.10
2022-10-13T11:05:49.427Z,53.50
2022-10-13T11:06:49.417Z,50.80
2022-10-13T11:07:49.406Z,49.10
2022-10-13T11:08:49.405Z,54.00
2022-10-13T11:09:49.403Z,53.80
2022-10-13T11:10:49.377Z,54.20
2022-10-13T11:11:49.358Z,54.00
2022-10-13T11:12:49.375Z,55.50
2022-10-13T11:13:49.348Z,50.70
2022-10-13T11:14:49.357Z,51.60
2022-10-13T11:15:49.318Z,50.20
2022-10-13T11:16:49.317Z,45.90
2022-10-13T11:17:49.300Z,45.70
2022-10-13T11:18:49.290Z,50.60
2022-10-13T11:19:49.298Z,40.40
2022-10-13T11:20:49.271Z,45.80
2022-10-13T11:21:49.262Z,44.00
2022-10-13T11:22:49.251Z,41.40
2022-10-13T11:23:49.232Z,41.30
2022-10-13T11:24:49.244Z,39.60
2022-10-13T11:25:49.213Z,37.40
2022-10-13T11:26:49.213Z,36.90
2022-10-13T11:27:49.195Z,47.70
2022-10-13T11:28:49.245Z,46.30
2022-10-13T11:29:49.217Z,42.90
2022-10-13T11:30:49.179Z,43.70
2022-10-13T11:31:49.154Z,42.40
2022-10-13T11:32:49.144Z,44.80
2022-10-13T11:33:49.126Z,40.50
2022-10-13T11:34:49.137Z,42.70
2022-10-13T11:35:49.108Z,39.20
2022-10-13T11:36:49.107Z,39.20
2022-10-13T11:38:05.716Z,44.80
2022-10-13T11:38:50.077Z,40.60
2022-10-13T11:39:49.079Z,44.30
2022-10-13T11:40:49.060Z,41.00
2022-10-13T11:41:49.048Z,41.80
2022-10-13T11:42:49.048Z,46.10
2022-10-13T11:43:49.019Z,42.50
2022-10-13T11:44:49.113Z,45.00
2022-10-13T11:45:49.008Z,38.70
2022-10-13T11:46:48.999Z,41.40
2022-10-13T11:47:48.984Z,41.20
2022-10-13T11:48:48.979Z,42.70
2022-10-13T11:49:48.990Z,42.10
2022-10-13T11:50:48.953Z,37.00
2022-10-13T11:51:48.949Z,41.90
2022-10-13T11:52:48.933Z,38.30
2022-10-13T11:53:48.914Z,43.40
2022-10-13T11:54:48.933Z,42.10
2022-10-13T11:55:48.904Z,38.80
2022-10-13T11:56:49.105Z,35.70
2022-10-13T11:57:48.884Z,41.10
2022-10-13T11:58:48.877Z,38.80
2022-10-13T11:59:48.877Z,35.80
2022-10-13T12:00:48.870Z,36.40
2022-10-13T12:01:48.838Z,36.90
2022-10-13T12:02:48.847Z,43.60
2022-10-13T12:03:48.818Z,38.70
2022-10-13T12:04:48.829Z,41.60
2022-10-13T12:05:48.791Z,42.50
2022-10-13T12:06:48.780Z,37.10
2022-10-13T12:07:48.777Z,41.00
2022-10-13T12:08:48.767Z,37.20
2022-10-13T12:09:48.777Z,41.20
2022-10-13T12:10:48.745Z,33.70
2022-10-13T12:11:48.734Z,36.00
2022-10-13T12:12:48.741Z,38.00
2022-10-13T12:13:48.713Z,40.10
2022-10-13T12:14:48.721Z,33.90
2022-10-13T12:15:48.685Z,37.10
2022-10-13T12:16:48.709Z,38.00
2022-10-13T12:17:48.674Z,47.90
2022-10-13T12:18:48.664Z,43.40
2022-10-13T12:19:48.664Z,40.20
2022-10-13T12:20:48.636Z,35.50
2022-10-13T12:21:48.626Z,37.20
2022-10-13T12:22:48.626Z,37.10
2022-10-13T12:23:48.604Z,40.10
2022-10-13T12:24:48.618Z,41.90
2022-10-13T12:25:48.589Z,36.50
2022-10-13T12:26:48.579Z,38.00
2022-10-13T12:27:48.566Z,41.40
2022-10-13T12:28:48.583Z,39.00
2022-10-13T12:29:48.569Z,36.20
2022-10-13T12:30:48.539Z,37.00
2022-10-13T12:31:48.520Z,38.60
2022-10-13T12:32:48.609Z,33.70
2022-10-13T12:33:48.499Z,35.20
2022-10-13T12:34:48.510Z,37.00
2022-10-13T12:35:48.473Z,38.00
2022-10-13T12:36:48.526Z,35.90
2022-10-13T12:37:48.454Z,36.20
2022-10-13T12:38:48.452Z,37.30
2022-10-13T12:39:48.463Z,36.30
2022-10-13T12:40:48.431Z,34.20
2022-10-13T12:41:48.416Z,40.80
2022-10-13T12:42:48.520Z,36.90
2022-10-13T12:43:48.394Z,36.00
2022-10-13T12:44:48.405Z,30.40
2022-10-13T12:45:48.373Z,34.00
2022-10-13T12:46:48.366Z,39.90
2022-10-13T12:47:48.347Z,36.10